Aviation Digital Data Service (ADDS)

Output produced by TAFs form (1446 UTC 29 July 2014)
found at http://www.aviationweather.gov/adds/tafs/
 
KSBY 291140Z 2912/3012 32007KT P6SM SKC 
     FM291500 30007KT P6SM SCT040 
     FM292300 VRB03KT P6SM SKC AMD NOT SKED